Arcanum, Ohio
Current Conditions -  °F | °C
As of 11:35 PM on Sunday 21 Dec 2014 (Local Time) from KVES Reporting Station
Clear Clear  
Wind Chill: 20°   Ceiling: Unl
Heat Index: 27°   Visibility: 7mi
Dew Point: 27°   Wind: 6mph
Humidity: 100%   Direction: 130°SE
Pressure: 30.12"   Gusts: NA
Location:  39.99°N, 84.55°W
Report Text: KVES 220435Z AUTO 13005KT 7SM CLR M03/M03 A3012 RMK AO2
Loading
Personal Weather Stations






























Interactive Weather Map New forecast layout! Learn more

10-Day Weather Forecast

Advertisements
Track Severe Weather on mobile